METAR Formatted Surface Weather Observation
Issued by NWS

Home | Current Version | Previous Version | Text Only | Print | Product List | Glossary On
Versions: 1 2 3 4 5 6 7 8 9 10 11 12 13 14 15 16 17 18
000
SAUS41 KLWX 200159 COR
MTRNAK
METAR KNAK 200154Z AUTO 29009G15KT 10SM CLR 07/M02 A2990 RMK AO2
SLP128 T00721017



USA.gov is the U.S. government's official web portal to all federal, state and local government web resources and services.